Terminal Aerodrome Forecast
Issued by NWS

Home | Current Version | Previous Version | Text Only | Print | Product List | Glossary On
Versions: 1 2 3 4 5 6 7 8 9 10 11 12 13 14 15 16 17 18 19 20 21 22 23 24 25 26 27 28 29 30 31
000
FTUS42 KJAX 311947 AAD
TAFCRG
TAF AMD
KCRG 311947Z 3120/0118 12005KT P6SM VCTS SCT015 BKN025CB OVC090
     FM312100 VRB05KT P6SM VCTS SCT020 BKN030CB BKN120
     FM010100 18004KT P6SM SCT040 BKN200
     FM011500 22006KT P6SM VCSH SCT025 BKN050=

USA.gov is the U.S. government's official web portal to all federal, state and local government web resources and services.